sensor_id;sensor_type;location;lat;lon;timestamp;P1;durP1;ratioP1;P2;durP2;ratioP2
64244;SDS011;50584;29.058;-110.966;2023-05-01T00:00:09;9.60;;;1.65;;
64244;SDS011;50584;29.058;-110.966;2023-05-01T00:02:35;10.05;;;2.13;;
64244;SDS011;50584;29.058;-110.966;2023-05-01T00:05:01;7.18;;;1.83;;
64244;SDS011;50584;29.058;-110.966;2023-05-01T00:07:28;6.05;;;1.83;;
64244;SDS011;50584;29.058;-110.966;2023-05-01T00:09:58;7.05;;;2.47;;
64244;SDS011;50584;29.058;-110.966;2023-05-01T00:12:24;12.83;;;2.40;;
64244;SDS011;50584;29.058;-110.966;2023-05-01T00:14:50;6.18;;;2.08;;
64244;SDS011;50584;29.058;-110.966;2023-05-01T00:17:16;9.07;;;1.60;;
64244;SDS011;50584;29.058;-110.966;2023-05-01T00:19:42;11.23;;;1.85;;
64244;SDS011;50584;29.058;-110.966;2023-05-01T00:22:08;6.40;;;1.70;;
64244;SDS011;50584;29.058;-110.966;2023-05-01T00:24:33;10.05;;;1.80;;
64244;SDS011;50584;29.058;-110.966;2023-05-01T00:26:59;8.88;;;2.00;;
64244;SDS011;50584;29.058;-110.966;2023-05-01T00:29:25;8.95;;;1.80;;
64244;SDS011;50584;29.058;-110.966;2023-05-01T00:31:51;6.72;;;1.63;;
64244;SDS011;50584;29.058;-110.966;2023-05-01T00:34:17;8.65;;;1.50;;
64244;SDS011;50584;29.058;-110.966;2023-05-01T00:36:43;6.75;;;1.70;;
64244;SDS011;50584;29.058;-110.966;2023-05-01T00:39:08;6.28;;;1.60;;
64244;SDS011;50584;29.058;-110.966;2023-05-01T00:41:34;3.63;;;1.70;;
64244;SDS011;50584;29.058;-110.966;2023-05-01T00:44:00;5.05;;;1.30;;
64244;SDS011;50584;29.058;-110.966;2023-05-01T00:46:29;5.63;;;1.60;;
64244;SDS011;50584;29.058;-110.966;2023-05-01T00:48:56;3.47;;;1.60;;
64244;SDS011;50584;29.058;-110.966;2023-05-01T00:51:22;2.60;;;1.40;;
64244;SDS011;50584;29.058;-110.966;2023-05-01T00:53:49;4.18;;;1.92;;
64244;SDS011;50584;29.058;-110.966;2023-05-01T00:56:15;9.23;;;1.45;;
64244;SDS011;50584;29.058;-110.966;2023-05-01T00:58:41;10.35;;;1.48;;
64244;SDS011;50584;29.058;-110.966;2023-05-01T01:01:07;1.80;;;1.08;;
64244;SDS011;50584;29.058;-110.966;2023-05-01T01:03:35;4.32;;;1.33;;
64244;SDS011;50584;29.058;-110.966;2023-05-01T01:08:52;5.72;;;1.70;;
64244;SDS011;50584;29.058;-110.966;2023-05-01T01:11:23;6.63;;;1.80;;
64244;SDS011;50584;29.058;-110.966;2023-05-01T01:13:57;14.55;;;3.03;;
64244;SDS011;50584;29.058;-110.966;2023-05-01T01:16:31;8.60;;;1.73;;
64244;SDS011;50584;29.058;-110.966;2023-05-01T01:19:13;8.35;;;1.45;;
64244;SDS011;50584;29.058;-110.966;2023-05-01T01:21:43;5.85;;;2.03;;
64244;SDS011;50584;29.058;-110.966;2023-05-01T01:24:17;7.57;;;1.70;;
64244;SDS011;50584;29.058;-110.966;2023-05-01T01:34:39;18.70;;;2.00;;
64244;SDS011;50584;29.058;-110.966;2023-05-01T01:37:21;11.95;;;1.60;;
64244;SDS011;50584;29.058;-110.966;2023-05-01T01:40:00;2.55;;;1.48;;
64244;SDS011;50584;29.058;-110.966;2023-05-01T01:42:29;5.97;;;1.65;;
64244;SDS011;50584;29.058;-110.966;2023-05-01T01:45:00;7.25;;;1.95;;
64244;SDS011;50584;29.058;-110.966;2023-05-01T01:47:29;9.68;;;1.60;;
64244;SDS011;50584;29.058;-110.966;2023-05-01T01:49:57;10.65;;;1.70;;
64244;SDS011;50584;29.058;-110.966;2023-05-01T01:52:23;2.63;;;1.55;;
64244;SDS011;50584;29.058;-110.966;2023-05-01T01:54:50;4.18;;;1.70;;
64244;SDS011;50584;29.058;-110.966;2023-05-01T01:57:17;11.60;;;1.90;;
64244;SDS011;50584;29.058;-110.966;2023-05-01T01:59:43;13.68;;;1.70;;
64244;SDS011;50584;29.058;-110.966;2023-05-01T02:02:11;4.45;;;1.30;;
64244;SDS011;50584;29.058;-110.966;2023-05-01T02:04:38;7.90;;;2.05;;
64244;SDS011;50584;29.058;-110.966;2023-05-01T02:07:05;2.72;;;1.50;;
64244;SDS011;50584;29.058;-110.966;2023-05-01T02:09:31;7.40;;;1.70;;
64244;SDS011;50584;29.058;-110.966;2023-05-01T02:11:59;7.00;;;1.75;;
64244;SDS011;50584;29.058;-110.966;2023-05-01T02:14:25;7.40;;;2.60;;
64244;SDS011;50584;29.058;-110.966;2023-05-01T02:16:51;11.15;;;2.08;;
64244;SDS011;50584;29.058;-110.966;2023-05-01T02:19:17;7.20;;;2.10;;
64244;SDS011;50584;29.058;-110.966;2023-05-01T02:21:44;14.82;;;2.72;;
64244;SDS011;50584;29.058;-110.966;2023-05-01T02:24:11;4.90;;;1.60;;
64244;SDS011;50584;29.058;-110.966;2023-05-01T02:26:40;6.07;;;1.60;;
64244;SDS011;50584;29.058;-110.966;2023-05-01T02:29:06;7.93;;;1.92;;
64244;SDS011;50584;29.058;-110.966;2023-05-01T02:31:32;8.18;;;1.77;;
64244;SDS011;50584;29.058;-110.966;2023-05-01T02:33:58;6.07;;;1.65;;
64244;SDS011;50584;29.058;-110.966;2023-05-01T02:36:24;3.80;;;1.42;;
64244;SDS011;50584;29.058;-110.966;2023-05-01T02:38:50;2.33;;;1.20;;
64244;SDS011;50584;29.058;-110.966;2023-05-01T02:41:16;14.38;;;1.73;;
64244;SDS011;50584;29.058;-110.966;2023-05-01T02:43:43;11.07;;;2.53;;
64244;SDS011;50584;29.058;-110.966;2023-05-01T02:46:10;6.03;;;1.70;;
64244;SDS011;50584;29.058;-110.966;2023-05-01T02:48:37;7.80;;;2.08;;
64244;SDS011;50584;29.058;-110.966;2023-05-01T02:51:04;5.60;;;2.47;;
64244;SDS011;50584;29.058;-110.966;2023-05-01T02:53:31;18.75;;;3.30;;
64244;SDS011;50584;29.058;-110.966;2023-05-01T02:55:58;9.38;;;2.78;;
64244;SDS011;50584;29.058;-110.966;2023-05-01T02:58:23;15.23;;;2.90;;
64244;SDS011;50584;29.058;-110.966;2023-05-01T03:00:49;14.45;;;5.72;;
64244;SDS011;50584;29.058;-110.966;2023-05-01T03:03:15;63.25;;;25.15;;
64244;SDS011;50584;29.058;-110.966;2023-05-01T03:05:41;36.15;;;13.05;;
64244;SDS011;50584;29.058;-110.966;2023-05-01T03:08:07;13.30;;;3.05;;
64244;SDS011;50584;29.058;-110.966;2023-05-01T03:10:34;10.80;;;2.00;;
64244;SDS011;50584;29.058;-110.966;2023-05-01T03:13:00;11.88;;;2.60;;
64244;SDS011;50584;29.058;-110.966;2023-05-01T03:15:26;16.63;;;5.35;;
64244;SDS011;50584;29.058;-110.966;2023-05-01T03:17:51;10.75;;;2.45;;
64244;SDS011;50584;29.058;-110.966;2023-05-01T03:20:17;10.20;;;3.53;;
64244;SDS011;50584;29.058;-110.966;2023-05-01T03:22:43;28.40;;;10.50;;
64244;SDS011;50584;29.058;-110.966;2023-05-01T03:25:08;47.10;;;29.30;;
64244;SDS011;50584;29.058;-110.966;2023-05-01T03:27:34;16.13;;;8.07;;
64244;SDS011;50584;29.058;-110.966;2023-05-01T03:30:00;10.52;;;6.72;;
64244;SDS011;50584;29.058;-110.966;2023-05-01T03:32:26;8.23;;;2.80;;
64244;SDS011;50584;29.058;-110.966;2023-05-01T03:34:53;11.18;;;3.13;;
64244;SDS011;50584;29.058;-110.966;2023-05-01T03:37:19;15.80;;;2.85;;
64244;SDS011;50584;29.058;-110.966;2023-05-01T03:39:45;7.95;;;2.63;;
64244;SDS011;50584;29.058;-110.966;2023-05-01T03:42:10;5.90;;;1.98;;
64244;SDS011;50584;29.058;-110.966;2023-05-01T03:44:36;12.90;;;2.45;;
64244;SDS011;50584;29.058;-110.966;2023-05-01T03:47:02;4.88;;;2.00;;
64244;SDS011;50584;29.058;-110.966;2023-05-01T03:49:28;16.20;;;2.58;;
64244;SDS011;50584;29.058;-110.966;2023-05-01T03:51:54;14.05;;;2.17;;
64244;SDS011;50584;29.058;-110.966;2023-05-01T03:54:20;10.90;;;2.50;;
64244;SDS011;50584;29.058;-110.966;2023-05-01T03:56:46;10.65;;;1.80;;
64244;SDS011;50584;29.058;-110.966;2023-05-01T03:59:12;10.40;;;2.10;;
64244;SDS011;50584;29.058;-110.966;2023-05-01T04:01:38;4.72;;;1.50;;
64244;SDS011;50584;29.058;-110.966;2023-05-01T04:04:04;5.82;;;2.05;;
64244;SDS011;50584;29.058;-110.966;2023-05-01T04:06:31;2.40;;;1.50;;
64244;SDS011;50584;29.058;-110.966;2023-05-01T04:08:57;14.20;;;2.08;;
64244;SDS011;50584;29.058;-110.966;2023-05-01T04:11:22;5.93;;;2.00;;
64244;SDS011;50584;29.058;-110.966;2023-05-01T04:13:48;7.18;;;2.53;;
64244;SDS011;50584;29.058;-110.966;2023-05-01T04:16:14;8.60;;;2.70;;
64244;SDS011;50584;29.058;-110.966;2023-05-01T04:18:40;12.63;;;3.30;;
64244;SDS011;50584;29.058;-110.966;2023-05-01T04:21:05;11.15;;;3.00;;
64244;SDS011;50584;29.058;-110.966;2023-05-01T04:23:31;12.13;;;3.00;;
64244;SDS011;50584;29.058;-110.966;2023-05-01T04:25:57;8.70;;;5.38;;
64244;SDS011;50584;29.058;-110.966;2023-05-01T04:28:23;12.93;;;2.60;;
64244;SDS011;50584;29.058;-110.966;2023-05-01T04:30:48;6.45;;;2.50;;
64244;SDS011;50584;29.058;-110.966;2023-05-01T04:33:14;8.95;;;2.13;;
64244;SDS011;50584;29.058;-110.966;2023-05-01T04:35:40;5.95;;;2.00;;
64244;SDS011;50584;29.058;-110.966;2023-05-01T04:38:06;8.43;;;2.20;;
64244;SDS011;50584;29.058;-110.966;2023-05-01T04:40:32;8.13;;;2.80;;
64244;SDS011;50584;29.058;-110.966;2023-05-01T04:42:58;10.25;;;3.17;;
64244;SDS011;50584;29.058;-110.966;2023-05-01T04:45:25;10.02;;;6.05;;
64244;SDS011;50584;29.058;-110.966;2023-05-01T04:47:50;12.55;;;4.10;;
64244;SDS011;50584;29.058;-110.966;2023-05-01T04:50:16;19.33;;;4.03;;
64244;SDS011;50584;29.058;-110.966;2023-05-01T04:52:42;13.23;;;5.28;;
64244;SDS011;50584;29.058;-110.966;2023-05-01T04:55:08;12.57;;;3.05;;
64244;SDS011;50584;29.058;-110.966;2023-05-01T04:57:34;13.75;;;3.28;;
64244;SDS011;50584;29.058;-110.966;2023-05-01T05:00:00;7.32;;;2.97;;
64244;SDS011;50584;29.058;-110.966;2023-05-01T05:02:27;9.02;;;2.80;;
64244;SDS011;50584;29.058;-110.966;2023-05-01T05:04:53;9.27;;;2.60;;
64244;SDS011;50584;29.058;-110.966;2023-05-01T05:07:20;9.77;;;5.70;;
64244;SDS011;50584;29.058;-110.966;2023-05-01T05:09:46;11.23;;;3.25;;
64244;SDS011;50584;29.058;-110.966;2023-05-01T05:12:12;62.75;;;37.60;;
64244;SDS011;50584;29.058;-110.966;2023-05-01T05:14:39;20.30;;;10.52;;
64244;SDS011;50584;29.058;-110.966;2023-05-01T05:17:05;14.65;;;5.18;;
64244;SDS011;50584;29.058;-110.966;2023-05-01T05:19:31;38.75;;;24.65;;
64244;SDS011;50584;29.058;-110.966;2023-05-01T05:21:57;61.35;;;37.63;;
64244;SDS011;50584;29.058;-110.966;2023-05-01T05:24:23;44.13;;;27.48;;
64244;SDS011;50584;29.058;-110.966;2023-05-01T05:26:48;34.47;;;21.13;;
64244;SDS011;50584;29.058;-110.966;2023-05-01T05:29:14;23.30;;;13.00;;
64244;SDS011;50584;29.058;-110.966;2023-05-01T05:31:40;35.75;;;16.38;;
64244;SDS011;50584;29.058;-110.966;2023-05-01T05:34:06;14.02;;;8.27;;
64244;SDS011;50584;29.058;-110.966;2023-05-01T05:36:32;11.43;;;4.40;;
64244;SDS011;50584;29.058;-110.966;2023-05-01T05:38:59;12.63;;;3.00;;
64244;SDS011;50584;29.058;-110.966;2023-05-01T05:41:25;4.68;;;2.38;;
64244;SDS011;50584;29.058;-110.966;2023-05-01T05:43:51;13.98;;;2.83;;
64244;SDS011;50584;29.058;-110.966;2023-05-01T05:46:18;11.40;;;2.33;;
64244;SDS011;50584;29.058;-110.966;2023-05-01T05:48:44;9.52;;;2.28;;
64244;SDS011;50584;29.058;-110.966;2023-05-01T05:51:10;6.63;;;2.35;;
64244;SDS011;50584;29.058;-110.966;2023-05-01T05:53:36;12.18;;;3.00;;
64244;SDS011;50584;29.058;-110.966;2023-05-01T05:56:01;6.82;;;3.55;;
64244;SDS011;50584;29.058;-110.966;2023-05-01T05:58:27;10.82;;;2.80;;
64244;SDS011;50584;29.058;-110.966;2023-05-01T06:00:53;13.27;;;2.75;;
64244;SDS011;50584;29.058;-110.966;2023-05-01T06:03:20;5.95;;;2.45;;
64244;SDS011;50584;29.058;-110.966;2023-05-01T06:05:46;9.95;;;2.72;;
64244;SDS011;50584;29.058;-110.966;2023-05-01T06:08:11;3.78;;;2.17;;
64244;SDS011;50584;29.058;-110.966;2023-05-01T06:10:39;7.13;;;1.95;;
64244;SDS011;50584;29.058;-110.966;2023-05-01T06:13:06;10.55;;;2.58;;
64244;SDS011;50584;29.058;-110.966;2023-05-01T06:15:35;6.60;;;3.17;;
64244;SDS011;50584;29.058;-110.966;2023-05-01T06:18:01;7.30;;;2.35;;
64244;SDS011;50584;29.058;-110.966;2023-05-01T06:20:27;9.13;;;2.53;;
64244;SDS011;50584;29.058;-110.966;2023-05-01T06:22:53;7.15;;;2.60;;
64244;SDS011;50584;29.058;-110.966;2023-05-01T06:25:20;16.92;;;3.17;;
64244;SDS011;50584;29.058;-110.966;2023-05-01T06:27:45;10.40;;;3.30;;
64244;SDS011;50584;29.058;-110.966;2023-05-01T06:30:11;14.02;;;3.05;;
64244;SDS011;50584;29.058;-110.966;2023-05-01T06:32:37;6.38;;;2.35;;
64244;SDS011;50584;29.058;-110.966;2023-05-01T06:35:03;3.50;;;2.40;;
64244;SDS011;50584;29.058;-110.966;2023-05-01T06:37:29;14.05;;;3.13;;
64244;SDS011;50584;29.058;-110.966;2023-05-01T06:39:55;4.53;;;2.55;;
64244;SDS011;50584;29.058;-110.966;2023-05-01T06:42:21;6.22;;;2.33;;
64244;SDS011;50584;29.058;-110.966;2023-05-01T06:44:47;6.88;;;2.30;;
64244;SDS011;50584;29.058;-110.966;2023-05-01T06:47:13;10.80;;;2.53;;
64244;SDS011;50584;29.058;-110.966;2023-05-01T06:49:38;13.57;;;3.30;;
64244;SDS011;50584;29.058;-110.966;2023-05-01T06:52:04;18.00;;;3.20;;
64244;SDS011;50584;29.058;-110.966;2023-05-01T06:54:30;28.35;;;4.28;;
64244;SDS011;50584;29.058;-110.966;2023-05-01T06:56:56;20.85;;;4.32;;
64244;SDS011;50584;29.058;-110.966;2023-05-01T06:59:22;23.15;;;3.90;;
64244;SDS011;50584;29.058;-110.966;2023-05-01T07:01:47;19.25;;;3.85;;
64244;SDS011;50584;29.058;-110.966;2023-05-01T07:04:13;20.63;;;3.53;;
64244;SDS011;50584;29.058;-110.966;2023-05-01T07:06:39;18.05;;;3.22;;
64244;SDS011;50584;29.058;-110.966;2023-05-01T07:09:05;13.43;;;3.35;;
64244;SDS011;50584;29.058;-110.966;2023-05-01T07:11:31;13.68;;;2.95;;
64244;SDS011;50584;29.058;-110.966;2023-05-01T07:13:57;12.13;;;3.10;;
64244;SDS011;50584;29.058;-110.966;2023-05-01T07:16:22;9.32;;;3.60;;
64244;SDS011;50584;29.058;-110.966;2023-05-01T07:18:49;19.58;;;4.88;;
64244;SDS011;50584;29.058;-110.966;2023-05-01T07:21:14;18.25;;;3.42;;
64244;SDS011;50584;29.058;-110.966;2023-05-01T07:23:40;20.25;;;3.40;;
64244;SDS011;50584;29.058;-110.966;2023-05-01T07:26:06;14.77;;;3.33;;
64244;SDS011;50584;29.058;-110.966;2023-05-01T07:28:32;14.90;;;2.92;;
64244;SDS011;50584;29.058;-110.966;2023-05-01T07:30:58;9.27;;;3.47;;
64244;SDS011;50584;29.058;-110.966;2023-05-01T07:33:25;7.43;;;2.50;;
64244;SDS011;50584;29.058;-110.966;2023-05-01T07:35:51;6.78;;;2.13;;
64244;SDS011;50584;29.058;-110.966;2023-05-01T07:38:17;11.82;;;2.72;;
64244;SDS011;50584;29.058;-110.966;2023-05-01T07:40:43;8.15;;;2.35;;
64244;SDS011;50584;29.058;-110.966;2023-05-01T07:43:09;11.38;;;2.60;;
64244;SDS011;50584;29.058;-110.966;2023-05-01T07:45:39;11.00;;;2.80;;
64244;SDS011;50584;29.058;-110.966;2023-05-01T07:48:05;10.18;;;2.28;;
64244;SDS011;50584;29.058;-110.966;2023-05-01T07:50:31;7.00;;;2.67;;
64244;SDS011;50584;29.058;-110.966;2023-05-01T07:52:57;3.72;;;2.28;;
64244;SDS011;50584;29.058;-110.966;2023-05-01T07:55:23;5.93;;;2.15;;
64244;SDS011;50584;29.058;-110.966;2023-05-01T07:57:49;9.88;;;1.98;;
64244;SDS011;50584;29.058;-110.966;2023-05-01T08:00:15;4.32;;;2.03;;
64244;SDS011;50584;29.058;-110.966;2023-05-01T08:02:41;4.65;;;1.60;;
64244;SDS011;50584;29.058;-110.966;2023-05-01T08:05:07;8.75;;;1.85;;
64244;SDS011;50584;29.058;-110.966;2023-05-01T08:07:33;14.93;;;2.10;;
64244;SDS011;50584;29.058;-110.966;2023-05-01T08:09:59;6.00;;;2.00;;
64244;SDS011;50584;29.058;-110.966;2023-05-01T08:12:25;5.85;;;1.92;;
64244;SDS011;50584;29.058;-110.966;2023-05-01T08:14:51;8.60;;;2.13;;
64244;SDS011;50584;29.058;-110.966;2023-05-01T08:17:17;6.75;;;1.98;;
64244;SDS011;50584;29.058;-110.966;2023-05-01T08:19:43;4.15;;;2.17;;
64244;SDS011;50584;29.058;-110.966;2023-05-01T08:22:09;6.63;;;2.10;;
64244;SDS011;50584;29.058;-110.966;2023-05-01T08:24:36;8.13;;;2.45;;
64244;SDS011;50584;29.058;-110.966;2023-05-01T08:27:01;6.95;;;2.25;;
64244;SDS011;50584;29.058;-110.966;2023-05-01T08:29:27;8.15;;;2.25;;
64244;SDS011;50584;29.058;-110.966;2023-05-01T08:31:54;6.07;;;2.20;;
64244;SDS011;50584;29.058;-110.966;2023-05-01T08:34:21;13.95;;;2.30;;
64244;SDS011;50584;29.058;-110.966;2023-05-01T08:36:47;5.05;;;2.20;;
64244;SDS011;50584;29.058;-110.966;2023-05-01T08:39:12;4.75;;;1.90;;
64244;SDS011;50584;29.058;-110.966;2023-05-01T08:41:39;5.47;;;2.05;;
64244;SDS011;50584;29.058;-110.966;2023-05-01T08:44:07;9.60;;;2.25;;
64244;SDS011;50584;29.058;-110.966;2023-05-01T08:46:52;5.93;;;2.10;;
64244;SDS011;50584;29.058;-110.966;2023-05-01T08:49:22;3.65;;;2.10;;
64244;SDS011;50584;29.058;-110.966;2023-05-01T08:51:48;9.05;;;3.20;;
64244;SDS011;50584;29.058;-110.966;2023-05-01T08:54:16;8.57;;;2.15;;
64244;SDS011;50584;29.058;-110.966;2023-05-01T08:56:44;11.07;;;2.30;;
64244;SDS011;50584;29.058;-110.966;2023-05-01T08:59:11;6.88;;;2.25;;
64244;SDS011;50584;29.058;-110.966;2023-05-01T09:01:38;2.35;;;1.92;;
64244;SDS011;50584;29.058;-110.966;2023-05-01T09:04:04;6.55;;;2.35;;
64244;SDS011;50584;29.058;-110.966;2023-05-01T09:06:31;10.48;;;1.92;;
64244;SDS011;50584;29.058;-110.966;2023-05-01T09:08:57;11.88;;;2.50;;
64244;SDS011;50584;29.058;-110.966;2023-05-01T09:11:23;5.43;;;2.38;;
64244;SDS011;50584;29.058;-110.966;2023-05-01T09:13:49;4.78;;;2.22;;
64244;SDS011;50584;29.058;-110.966;2023-05-01T09:16:15;10.23;;;2.05;;
64244;SDS011;50584;29.058;-110.966;2023-05-01T09:18:41;9.18;;;2.40;;
64244;SDS011;50584;29.058;-110.966;2023-05-01T09:21:07;14.02;;;2.65;;
64244;SDS011;50584;29.058;-110.966;2023-05-01T09:23:33;12.95;;;3.20;;
64244;SDS011;50584;29.058;-110.966;2023-05-01T09:26:05;16.88;;;2.75;;
64244;SDS011;50584;29.058;-110.966;2023-05-01T09:33:54;11.80;;;2.10;;
64244;SDS011;50584;29.058;-110.966;2023-05-01T09:36:21;10.75;;;2.25;;
64244;SDS011;50584;29.058;-110.966;2023-05-01T09:38:47;10.13;;;2.08;;
64244;SDS011;50584;29.058;-110.966;2023-05-01T09:41:13;6.70;;;2.13;;
64244;SDS011;50584;29.058;-110.966;2023-05-01T09:43:38;6.30;;;2.47;;
64244;SDS011;50584;29.058;-110.966;2023-05-01T09:46:06;4.93;;;1.90;;
64244;SDS011;50584;29.058;-110.966;2023-05-01T09:48:33;4.72;;;2.00;;
64244;SDS011;50584;29.058;-110.966;2023-05-01T09:51:00;2.15;;;1.55;;
64244;SDS011;50584;29.058;-110.966;2023-05-01T09:53:38;5.03;;;1.63;;
64244;SDS011;50584;29.058;-110.966;2023-05-01T09:56:05;4.05;;;1.80;;
64244;SDS011;50584;29.058;-110.966;2023-05-01T09:58:31;7.32;;;1.75;;
64244;SDS011;50584;29.058;-110.966;2023-05-01T10:00:57;2.53;;;1.60;;
64244;SDS011;50584;29.058;-110.966;2023-05-01T10:03:23;4.78;;;1.77;;
64244;SDS011;50584;29.058;-110.966;2023-05-01T10:05:48;2.25;;;1.77;;
64244;SDS011;50584;29.058;-110.966;2023-05-01T10:08:14;16.10;;;2.35;;
64244;SDS011;50584;29.058;-110.966;2023-05-01T10:10:40;9.32;;;2.03;;
64244;SDS011;50584;29.058;-110.966;2023-05-01T10:13:13;5.25;;;1.70;;
64244;SDS011;50584;29.058;-110.966;2023-05-01T10:15:39;6.10;;;2.13;;
64244;SDS011;50584;29.058;-110.966;2023-05-01T10:18:06;5.65;;;1.50;;
64244;SDS011;50584;29.058;-110.966;2023-05-01T10:20:34;10.70;;;2.75;;
64244;SDS011;50584;29.058;-110.966;2023-05-01T10:23:00;7.95;;;1.75;;
64244;SDS011;50584;29.058;-110.966;2023-05-01T10:25:27;11.82;;;2.15;;
64244;SDS011;50584;29.058;-110.966;2023-05-01T10:27:54;5.10;;;1.92;;
64244;SDS011;50584;29.058;-110.966;2023-05-01T10:30:21;6.85;;;1.98;;
64244;SDS011;50584;29.058;-110.966;2023-05-01T10:32:47;5.95;;;1.90;;
64244;SDS011;50584;29.058;-110.966;2023-05-01T10:35:14;2.55;;;1.70;;
64244;SDS011;50584;29.058;-110.966;2023-05-01T10:38:02;9.98;;;2.33;;
64244;SDS011;50584;29.058;-110.966;2023-05-01T10:43:37;5.85;;;1.83;;
64244;SDS011;50584;29.058;-110.966;2023-05-01T10:53:35;8.27;;;2.72;;
64244;SDS011;50584;29.058;-110.966;2023-05-01T10:56:02;5.53;;;2.60;;
64244;SDS011;50584;29.058;-110.966;2023-05-01T10:59:11;6.25;;;2.33;;
64244;SDS011;50584;29.058;-110.966;2023-05-01T11:03:54;5.75;;;2.00;;
64244;SDS011;50584;29.058;-110.966;2023-05-01T11:06:20;5.43;;;1.98;;
64244;SDS011;50584;29.058;-110.966;2023-05-01T11:08:46;5.43;;;1.73;;
64244;SDS011;50584;29.058;-110.966;2023-05-01T11:19:07;7.82;;;1.90;;
64244;SDS011;50584;29.058;-110.966;2023-05-01T11:21:37;11.38;;;2.20;;
64244;SDS011;50584;29.058;-110.966;2023-05-01T11:24:03;20.35;;;2.83;;
64244;SDS011;50584;29.058;-110.966;2023-05-01T11:26:29;10.90;;;2.90;;
64244;SDS011;50584;29.058;-110.966;2023-05-01T11:28:59;11.85;;;2.80;;
64244;SDS011;50584;29.058;-110.966;2023-05-01T11:31:25;11.40;;;3.20;;
64244;SDS011;50584;29.058;-110.966;2023-05-01T11:33:51;11.48;;;2.95;;
64244;SDS011;50584;29.058;-110.966;2023-05-01T11:36:17;14.32;;;2.60;;
64244;SDS011;50584;29.058;-110.966;2023-05-01T11:38:56;9.32;;;2.50;;
64244;SDS011;50584;29.058;-110.966;2023-05-01T11:41:23;10.50;;;2.40;;
64244;SDS011;50584;29.058;-110.966;2023-05-01T11:43:53;6.78;;;2.00;;
64244;SDS011;50584;29.058;-110.966;2023-05-01T11:46:29;8.40;;;2.45;;
64244;SDS011;50584;29.058;-110.966;2023-05-01T11:48:55;11.68;;;2.55;;
64244;SDS011;50584;29.058;-110.966;2023-05-01T11:51:21;6.80;;;2.47;;
64244;SDS011;50584;29.058;-110.966;2023-05-01T11:56:27;5.43;;;2.60;;
64244;SDS011;50584;29.058;-110.966;2023-05-01T11:58:57;5.85;;;2.90;;
64244;SDS011;50584;29.058;-110.966;2023-05-01T12:01:33;8.57;;;2.40;;
64244;SDS011;50584;29.058;-110.966;2023-05-01T12:04:00;6.18;;;2.60;;
64244;SDS011;50584;29.058;-110.966;2023-05-01T12:06:39;11.50;;;2.45;;
64244;SDS011;50584;29.058;-110.966;2023-05-01T12:09:18;11.30;;;2.83;;
64244;SDS011;50584;29.058;-110.966;2023-05-01T12:11:45;4.70;;;2.28;;
64244;SDS011;50584;29.058;-110.966;2023-05-01T12:14:12;15.30;;;2.83;;
64244;SDS011;50584;29.058;-110.966;2023-05-01T12:16:38;9.55;;;2.30;;
64244;SDS011;50584;29.058;-110.966;2023-05-01T12:19:05;11.40;;;2.20;;
64244;SDS011;50584;29.058;-110.966;2023-05-01T12:21:31;8.73;;;2.40;;
64244;SDS011;50584;29.058;-110.966;2023-05-01T12:24:06;9.48;;;2.22;;
64244;SDS011;50584;29.058;-110.966;2023-05-01T12:26:31;8.30;;;1.98;;
64244;SDS011;50584;29.058;-110.966;2023-05-01T12:31:23;11.15;;;2.22;;
64244;SDS011;50584;29.058;-110.966;2023-05-01T12:36:19;6.07;;;2.58;;
64244;SDS011;50584;29.058;-110.966;2023-05-01T12:44:14;8.90;;;2.53;;
64244;SDS011;50584;29.058;-110.966;2023-05-01T12:46:40;9.63;;;2.80;;
64244;SDS011;50584;29.058;-110.966;2023-05-01T12:49:06;8.70;;;3.13;;
64244;SDS011;50584;29.058;-110.966;2023-05-01T12:51:32;9.13;;;2.85;;
64244;SDS011;50584;29.058;-110.966;2023-05-01T12:53:57;4.43;;;2.40;;
64244;SDS011;50584;29.058;-110.966;2023-05-01T12:56:24;6.57;;;2.50;;
64244;SDS011;50584;29.058;-110.966;2023-05-01T12:58:53;5.97;;;2.50;;
64244;SDS011;50584;29.058;-110.966;2023-05-01T13:01:23;8.95;;;2.38;;
64244;SDS011;50584;29.058;-110.966;2023-05-01T13:03:50;8.13;;;3.00;;
64244;SDS011;50584;29.058;-110.966;2023-05-01T13:06:16;11.40;;;2.85;;
64244;SDS011;50584;29.058;-110.966;2023-05-01T13:08:42;8.88;;;2.72;;
64244;SDS011;50584;29.058;-110.966;2023-05-01T13:11:17;9.02;;;2.50;;
64244;SDS011;50584;29.058;-110.966;2023-05-01T13:13:43;7.10;;;3.00;;
64244;SDS011;50584;29.058;-110.966;2023-05-01T13:16:13;10.07;;;3.72;;
64244;SDS011;50584;29.058;-110.966;2023-05-01T13:18:43;14.07;;;4.10;;
64244;SDS011;50584;29.058;-110.966;2023-05-01T13:21:09;12.48;;;3.95;;
64244;SDS011;50584;29.058;-110.966;2023-05-01T13:23:36;19.02;;;5.78;;
64244;SDS011;50584;29.058;-110.966;2023-05-01T13:26:02;13.02;;;4.88;;
64244;SDS011;50584;29.058;-110.966;2023-05-01T13:28:29;12.40;;;4.50;;
64244;SDS011;50584;29.058;-110.966;2023-05-01T13:30:56;9.93;;;3.90;;
64244;SDS011;50584;29.058;-110.966;2023-05-01T13:33:21;11.98;;;3.92;;
64244;SDS011;50584;29.058;-110.966;2023-05-01T13:35:47;11.43;;;3.47;;
64244;SDS011;50584;29.058;-110.966;2023-05-01T13:38:13;7.30;;;3.88;;
64244;SDS011;50584;29.058;-110.966;2023-05-01T13:40:40;13.55;;;4.05;;
64244;SDS011;50584;29.058;-110.966;2023-05-01T13:43:09;9.80;;;3.55;;
64244;SDS011;50584;29.058;-110.966;2023-05-01T13:45:37;7.32;;;3.55;;
64244;SDS011;50584;29.058;-110.966;2023-05-01T13:48:04;13.88;;;4.13;;
64244;SDS011;50584;29.058;-110.966;2023-05-01T13:50:30;12.25;;;3.67;;
64244;SDS011;50584;29.058;-110.966;2023-05-01T13:52:55;15.15;;;3.95;;
64244;SDS011;50584;29.058;-110.966;2023-05-01T13:55:22;9.75;;;3.50;;
64244;SDS011;50584;29.058;-110.966;2023-05-01T13:57:48;13.18;;;3.45;;
64244;SDS011;50584;29.058;-110.966;2023-05-01T14:00:14;9.07;;;3.88;;
64244;SDS011;50584;29.058;-110.966;2023-05-01T14:02:44;11.27;;;3.10;;
64244;SDS011;50584;29.058;-110.966;2023-05-01T14:05:12;10.82;;;3.17;;
64244;SDS011;50584;29.058;-110.966;2023-05-01T14:07:49;7.00;;;3.00;;
64244;SDS011;50584;29.058;-110.966;2023-05-01T14:10:17;7.70;;;3.20;;
64244;SDS011;50584;29.058;-110.966;2023-05-01T14:12:43;9.50;;;3.13;;
64244;SDS011;50584;29.058;-110.966;2023-05-01T14:15:10;9.20;;;4.25;;
64244;SDS011;50584;29.058;-110.966;2023-05-01T14:17:36;17.95;;;5.95;;
64244;SDS011;50584;29.058;-110.966;2023-05-01T14:20:03;14.77;;;6.20;;
64244;SDS011;50584;29.058;-110.966;2023-05-01T14:23:02;17.88;;;5.03;;
64244;SDS011;50584;29.058;-110.966;2023-05-01T14:25:26;13.13;;;4.93;;
64244;SDS011;50584;29.058;-110.966;2023-05-01T14:27:53;15.50;;;4.10;;
64244;SDS011;50584;29.058;-110.966;2023-05-01T14:30:29;12.73;;;4.63;;
64244;SDS011;50584;29.058;-110.966;2023-05-01T14:32:59;25.20;;;5.53;;
64244;SDS011;50584;29.058;-110.966;2023-05-01T14:35:25;18.98;;;3.88;;
64244;SDS011;50584;29.058;-110.966;2023-05-01T14:37:51;14.73;;;3.80;;
64244;SDS011;50584;29.058;-110.966;2023-05-01T14:40:18;11.02;;;3.75;;
64244;SDS011;50584;29.058;-110.966;2023-05-01T14:42:44;8.57;;;2.97;;
64244;SDS011;50584;29.058;-110.966;2023-05-01T14:45:12;12.63;;;4.25;;
64244;SDS011;50584;29.058;-110.966;2023-05-01T14:47:38;13.38;;;4.63;;
64244;SDS011;50584;29.058;-110.966;2023-05-01T14:50:05;11.38;;;4.90;;
64244;SDS011;50584;29.058;-110.966;2023-05-01T14:52:31;36.28;;;9.23;;